Simmons Army Air Field Fort Bragg US
ICAO: KFBG
IATA: FBG
Category: Medium
Scheduled Services: No

Elevation: 244 ft
TransAlt. 18000 ft.

Airport Communications:
FAYETTEVILLE APP/DEP:133
FLT ADVSY:125.9
ATIS:139.25
GND/CLNC DEL:121.9
RANGE RDO:46.75
BASE OPS:142.35
PMSV METRO:141.25
TWR:125.9

KFBG Zoom In..

If you have problems with the map follow the link
https://www.worldairports.se/pages/airport.php?
ICAO=KFBG

Runways:

(A) RW 09 length 5011 ft width 110 ft
---- / hdg 93

(B) RW 27 length 5011 ft width 110 ft
---- / hdg 273

Location; KFBG
Day. 14 / Time. 05.11 Zulu
* Altimeter: 29.68
* Temperature: 12° c. 53.6°f.
* Wind from: 090° Speed 05 kn.
Dewpoint: 12° c.
Visibility: 10 Statute Miles.
Clouds: Overcast 300 ft.
Clouds: Overcast 00 ft.
Clouds: Broken 00 ft.

KFBG 140511Z AUTO 09005KT 10SM OVC003 12/12 A2968 RMK AO2 RAE08DZB08E11 OVC V BKN SLP054 $


Wind From 090°
Speed 05 kn.

 
 
jpsmedia worldairports.se 2019   terms of use